Time;durP1;ratioP1;P1;durP2;ratioP2;P2;SDS_P1;SDS_P2;PMS_P1;PMS_P2;Temp;Humidity;BMP_temperature;BMP_pressure;BME280_temperature;BME280_humidity;BME280_pressure;Samples;Min_cycle;Max_cycle;Signal;HPM_P1;HPM_P2
2022/12/15 00:40:58;;;;;;;27.57;13.67;;;-3.30;99.90;;;;;;5088714;28;20204;-69
2022/12/15 00:43:26;;;;;;;30.03;14.80;;;-3.40;99.90;;;;;;5085209;28;20223;-69
2022/12/15 00:48:40;;;;;;;25.43;15.03;;;-3.40;99.90;;;;;;5089369;28;20285;-69
2022/12/15 00:51:07;;;;;;;28.00;15.37;;;-3.40;99.90;;;;;;5087218;28;20667;-69
2022/12/15 01:21:15;;;;;;;27.97;17.03;;;-3.40;99.90;;;;;;5083075;28;20290;-69
2022/12/15 01:23:42;;;;;;;30.90;17.97;;;-3.40;99.90;;;;;;5069206;28;20209;-69
2022/12/15 01:26:08;;;;;;;33.07;17.40;;;-3.40;99.90;;;;;;5087285;28;20201;-70
2022/12/15 01:28:35;;;;;;;33.53;17.50;;;-3.30;99.90;;;;;;5081533;28;20223;-69
2022/12/15 01:31:10;;;;;;;34.23;17.40;;;-3.30;99.90;;;;;;5084502;28;20286;-69
2022/12/15 01:33:38;;;;;;;31.97;18.63;;;-3.30;99.90;;;;;;5085060;28;20545;-69
2022/12/15 01:36:05;;;;;;;33.10;16.90;;;-3.30;99.90;;;;;;5086546;28;20264;-69
2022/12/15 01:38:32;;;;;;;30.47;16.13;;;-3.20;99.90;;;;;;5082966;28;20291;-69
2022/12/15 01:41:06;;;;;;;31.27;16.53;;;-3.20;99.90;;;;;;5085415;28;20574;-69
2022/12/15 01:43:36;;;;;;;26.37;15.50;;;-3.20;99.90;;;;;;5085680;28;20247;-69
2022/12/15 01:46:12;;;;;;;33.03;17.70;;;-3.20;99.90;;;;;;5085624;28;20295;-68
2022/12/15 01:48:59;;;;;;;29.73;17.37;;;-3.20;99.90;;;;;;5083980;28;20243;-70
2022/12/15 01:51:40;;;;;;;29.33;17.17;;;-3.20;99.90;;;;;;5086245;28;20287;-69
2022/12/15 01:54:21;;;;;;;32.73;17.00;;;-3.20;99.90;;;;;;5087993;28;20282;-69
2022/12/15 01:56:51;;;;;;;33.60;17.63;;;-3.20;99.90;;;;;;5085979;28;20751;-70
2022/12/15 01:59:23;;;;;;;37.07;17.63;;;-3.20;99.90;;;;;;5080089;28;20230;-70
2022/12/15 02:01:50;;;;;;;32.97;18.63;;;-3.20;99.90;;;;;;5079114;28;20656;-69
2022/12/15 02:04:20;;;;;;;32.67;19.40;;;-3.20;99.90;;;;;;5071818;28;20216;-69
2022/12/15 02:06:48;;;;;;;31.03;18.23;;;-3.30;99.90;;;;;;5084890;28;20200;-69
2022/12/15 02:09:16;;;;;;;32.03;17.20;;;-3.30;99.90;;;;;;5067163;28;20236;-69
2022/12/15 02:11:49;;;;;;;36.27;19.70;;;-3.30;99.90;;;;;;5067315;28;20224;-69
2022/12/15 02:14:36;;;;;;;30.00;18.60;;;-3.30;99.90;;;;;;5081264;28;20188;-69
2022/12/15 02:17:15;;;;;;;35.63;18.10;;;-3.30;99.90;;;;;;5084990;28;20535;-69
2022/12/15 02:20:10;;;;;;;31.77;20.30;;;-3.30;99.90;;;;;;5082364;28;20259;-69
2022/12/15 02:23:22;;;;;;;33.13;18.20;;;-3.30;99.90;;;;;;5086529;28;20636;-69
2022/12/15 02:26:09;;;;;;;29.27;17.90;;;-3.30;99.90;;;;;;5048529;28;20230;-69
2022/12/15 02:28:55;;;;;;;37.30;18.50;;;-3.30;99.90;;;;;;5080880;28;20219;-69
2022/12/15 02:31:50;;;;;;;35.30;18.70;;;-3.30;99.90;;;;;;5067183;28;20283;-69
2022/12/15 02:34:43;;;;;;;32.90;17.70;;;-3.40;99.90;;;;;;5084760;28;20204;-71
2022/12/15 02:37:21;;;;;;;38.07;19.40;;;-3.30;99.90;;;;;;5043284;28;20284;-68
2022/12/15 02:39:48;;;;;;;38.80;19.63;;;-3.40;99.90;;;;;;5077941;28;20243;-68
2022/12/15 02:42:15;;;;;;;34.60;19.60;;;-3.30;99.90;;;;;;5087403;28;20255;-68
2022/12/15 02:45:05;;;;;;;39.87;20.43;;;-3.40;99.90;;;;;;5086008;28;20207;-68
2022/12/15 02:47:56;;;;;;;39.27;19.53;;;-3.30;99.90;;;;;;5089106;28;20622;-68
2022/12/15 02:50:39;;;;;;;34.83;19.97;;;-3.30;99.90;;;;;;5089697;28;20245;-69
2022/12/15 02:53:06;;;;;;;33.00;18.77;;;-3.30;99.90;;;;;;5086527;28;20204;-68
2022/12/15 02:55:47;;;;;;;42.43;19.30;;;-3.30;99.90;;;;;;5071375;28;20299;-68
2022/12/15 02:58:28;;;;;;;35.47;20.03;;;-3.30;99.90;;;;;;5090359;28;20357;-70
2022/12/15 03:01:03;;;;;;;31.63;18.70;;;-3.30;99.90;;;;;;5086121;28;20407;-69
2022/12/15 03:03:33;;;;;;;38.07;19.27;;;-3.30;99.90;;;;;;5088539;28;20207;-69
2022/12/15 03:06:02;;;;;;;41.13;18.30;;;-3.30;99.90;;;;;;5084595;28;20297;-69
2022/12/15 03:08:28;;;;;;;36.10;19.50;;;-3.30;99.90;;;;;;5082533;28;20291;-68
2022/12/15 03:10:56;;;;;;;40.57;19.90;;;-3.30;99.90;;;;;;5074068;28;20237;-67
2022/12/15 03:13:24;;;;;;;37.30;20.13;;;-3.30;99.90;;;;;;5077303;28;20293;-69
2022/12/15 03:15:51;;;;;;;43.53;22.07;;;-3.30;99.90;;;;;;5088309;28;20286;-69
2022/12/15 03:18:18;;;;;;;39.27;19.57;;;-3.30;99.90;;;;;;5069034;28;20287;-68
2022/12/15 03:20:45;;;;;;;38.03;20.10;;;-3.30;99.90;;;;;;5087774;28;20215;-69
2022/12/15 03:23:11;;;;;;;35.47;19.43;;;-3.30;99.90;;;;;;5067088;28;20287;-68
2022/12/15 03:25:38;;;;;;;36.60;19.77;;;-3.30;99.90;;;;;;5089081;28;21044;-70
2022/12/15 03:28:05;;;;;;;36.73;19.60;;;-3.30;99.90;;;;;;5074826;28;20216;-69
2022/12/15 03:30:31;;;;;;;32.23;19.53;;;-3.30;99.90;;;;;;5089124;28;20244;-69
2022/12/15 03:32:58;;;;;;;39.40;19.53;;;-3.40;99.90;;;;;;5083106;28;20267;-69
2022/12/15 03:35:25;;;;;;;31.00;17.37;;;-3.40;99.90;;;;;;5090668;28;20250;-69
2022/12/15 03:37:51;;;;;;;36.07;19.13;;;-3.40;99.90;;;;;;5080450;28;20201;-69
2022/12/15 03:40:18;;;;;;;37.97;20.33;;;-3.50;99.90;;;;;;5087166;28;20217;-69
2022/12/15 03:42:48;;;;;;;35.07;18.40;;;-3.50;99.90;;;;;;5069299;28;20708;-69
2022/12/15 03:45:20;;;;;;;38.70;19.03;;;-3.50;99.90;;;;;;5071371;28;20205;-69
2022/12/15 03:47:47;;;;;;;36.53;19.17;;;-3.50;99.90;;;;;;5087656;28;20235;-69
2022/12/15 03:50:16;;;;;;;40.00;19.97;;;-3.50;99.90;;;;;;5088171;28;20331;-69
2022/12/15 03:52:43;;;;;;;34.13;19.43;;;-3.50;99.90;;;;;;5063944;28;20236;-69
2022/12/15 03:55:11;;;;;;;46.63;22.20;;;-3.50;99.90;;;;;;5086160;28;20201;-69
2022/12/15 03:57:37;;;;;;;43.00;20.73;;;-3.50;99.90;;;;;;5085766;28;20235;-69
2022/12/15 04:00:05;;;;;;;46.60;22.10;;;-3.40;99.90;;;;;;5086004;28;20239;-69
2022/12/15 04:02:32;;;;;;;48.87;22.47;;;-3.40;99.90;;;;;;5083552;28;20744;-69
2022/12/15 04:04:59;;;;;;;36.60;20.97;;;-3.30;99.90;;;;;;5087184;28;20279;-69
2022/12/15 04:07:26;;;;;;;46.73;21.57;;;-3.30;99.90;;;;;;5088131;28;20583;-70
2022/12/15 04:09:53;;;;;;;40.43;22.30;;;-3.30;99.90;;;;;;5088319;28;20323;-69
2022/12/15 04:12:19;;;;;;;41.13;21.40;;;-3.30;99.90;;;;;;5090011;28;20218;-69
2022/12/15 04:14:46;;;;;;;41.77;22.37;;;-3.30;99.90;;;;;;5088866;28;20197;-69
2022/12/15 04:17:15;;;;;;;40.70;22.57;;;-3.30;99.90;;;;;;5074405;28;20258;-69
2022/12/15 04:22:27;;;;;;;49.73;23.27;;;-3.20;99.90;;;;;;5086432;28;20666;-69
2022/12/15 05:34:00;;;;;;;46.90;23.80;;;-3.00;99.90;;;;;;5081409;28;20210;-69
2022/12/15 05:36:31;;;;;;;42.67;22.87;;;-3.00;99.90;;;;;;5087885;28;20215;-69
2022/12/15 05:38:58;;;;;;;44.43;22.40;;;-3.00;99.90;;;;;;5086369;28;20270;-69
2022/12/15 05:41:25;;;;;;;43.73;23.97;;;-3.00;99.90;;;;;;5081953;28;20235;-69
2022/12/15 05:43:51;;;;;;;40.73;22.97;;;-3.00;99.90;;;;;;5083129;28;20238;-69
2022/12/15 05:46:18;;;;;;;47.77;24.10;;;-3.10;99.90;;;;;;5087117;28;20274;-69
2022/12/15 05:48:45;;;;;;;46.13;23.50;;;-3.10;99.90;;;;;;5088364;28;20208;-70
2022/12/15 05:51:12;;;;;;;47.57;22.90;;;-3.10;99.90;;;;;;5088530;28;20600;-68
2022/12/15 05:53:40;;;;;;;47.60;24.10;;;-3.10;99.90;;;;;;5086875;28;20790;-68
2022/12/15 05:56:10;;;;;;;49.30;23.50;;;-3.10;99.90;;;;;;5085070;28;20212;-69
2022/12/15 05:58:38;;;;;;;48.50;23.57;;;-3.10;99.90;;;;;;5083661;28;20243;-69
2022/12/15 06:01:14;;;;;;;43.57;23.50;;;-3.00;99.90;;;;;;5078947;28;20630;-69
2022/12/15 06:03:41;;;;;;;47.40;22.57;;;-3.00;99.90;;;;;;5086265;28;20300;-69
2022/12/15 06:06:09;;;;;;;43.87;23.67;;;-3.00;99.90;;;;;;5077498;28;20243;-68
2022/12/15 06:08:38;;;;;;;40.63;22.73;;;-3.00;99.90;;;;;;5087371;28;20303;-69
2022/12/15 06:11:05;;;;;;;51.23;22.37;;;-3.00;99.90;;;;;;5085706;28;20223;-69
2022/12/15 06:13:33;;;;;;;49.17;23.43;;;-3.00;99.90;;;;;;5085616;28;20208;-69
2022/12/15 06:16:04;;;;;;;45.90;23.57;;;-2.90;99.90;;;;;;5066494;28;20200;-69
2022/12/15 06:18:34;;;;;;;46.67;23.93;;;-2.90;99.90;;;;;;5068751;28;20206;-68
2022/12/15 06:21:05;;;;;;;44.90;23.20;;;-2.90;99.90;;;;;;5087034;28;20275;-69
2022/12/15 06:23:32;;;;;;;55.13;27.60;;;-2.80;99.90;;;;;;5092340;28;20297;-69
2022/12/15 06:26:09;;;;;;;53.47;23.80;;;-2.80;99.90;;;;;;5091268;28;20200;-69
2022/12/15 06:28:36;;;;;;;44.93;24.77;;;-2.70;99.90;;;;;;5089497;28;20493;-68
2022/12/15 06:31:05;;;;;;;44.90;24.00;;;-2.70;99.90;;;;;;5079403;28;20571;-68
2022/12/15 06:33:33;;;;;;;52.77;24.27;;;-2.70;99.90;;;;;;5082839;28;20203;-68
2022/12/15 06:36:09;;;;;;;46.83;23.50;;;-2.70;99.90;;;;;;5089209;28;20603;-69
2022/12/15 06:38:36;;;;;;;49.77;22.80;;;-2.60;99.90;;;;;;5091396;28;20192;-68
2022/12/15 06:41:04;;;;;;;53.37;24.43;;;-2.60;99.90;;;;;;5086720;28;20287;-68
2022/12/15 06:43:32;;;;;;;44.73;23.73;;;-2.60;99.90;;;;;;5070245;28;20672;-68
2022/12/15 06:46:01;;;;;;;41.80;22.57;;;-2.50;99.90;;;;;;5090710;28;20283;-68
2022/12/15 06:48:28;;;;;;;42.57;22.67;;;-2.60;99.90;;;;;;5089525;28;20676;-68
2022/12/15 06:50:55;;;;;;;44.10;23.30;;;-2.60;99.90;;;;;;5086760;28;20232;-68
2022/12/15 06:53:23;;;;;;;45.67;22.10;;;-2.60;99.90;;;;;;5091082;28;20200;-68
2022/12/15 06:55:50;;;;;;;45.57;22.80;;;-2.60;99.90;;;;;;5072407;28;20287;-68
2022/12/15 06:58:17;;;;;;;42.40;22.43;;;-2.60;99.90;;;;;;5088599;28;20248;-68
2022/12/15 07:00:45;;;;;;;38.93;21.73;;;-2.60;99.90;;;;;;5090036;28;20718;-68
2022/12/15 07:03:15;;;;;;;43.60;22.07;;;-2.60;99.90;;;;;;5090650;28;20629;-68
2022/12/15 07:05:43;;;;;;;43.90;21.90;;;-2.60;99.90;;;;;;5072622;28;20304;-68
2022/12/15 07:08:11;;;;;;;45.47;22.53;;;-2.70;99.90;;;;;;5091266;28;20556;-67
2022/12/15 07:10:43;;;;;;;49.73;22.87;;;-2.60;99.90;;;;;;5082230;28;21171;-68
2022/12/15 07:13:11;;;;;;;45.63;23.10;;;-2.70;99.90;;;;;;5085251;28;20222;-67
2022/12/15 07:15:39;;;;;;;45.10;22.97;;;-2.70;99.90;;;;;;5086388;28;20567;-67
2022/12/15 07:18:06;;;;;;;42.83;22.53;;;-2.70;99.90;;;;;;5083911;28;20302;-68
2022/12/15 07:20:33;;;;;;;48.60;23.80;;;-2.70;99.90;;;;;;5089019;28;20318;-67
2022/12/15 07:23:02;;;;;;;47.60;24.53;;;-2.70;99.90;;;;;;5088026;28;20720;-67
2022/12/15 07:25:29;;;;;;;46.03;23.57;;;-2.70;99.90;;;;;;5088381;28;20206;-69
2022/12/15 07:27:55;;;;;;;44.00;22.67;;;-2.70;99.90;;;;;;5084965;28;20347;-67
2022/12/15 07:30:22;;;;;;;45.00;23.73;;;-2.60;99.90;;;;;;5083963;28;20311;-68
2022/12/15 07:32:49;;;;;;;49.70;25.53;;;-2.60;99.90;;;;;;5084398;28;20639;-66
2022/12/15 07:35:16;;;;;;;44.23;23.63;;;-2.70;99.90;;;;;;5089250;28;20662;-66
2022/12/15 07:37:43;;;;;;;46.77;25.20;;;-2.60;99.90;;;;;;5088395;28;20200;-68
2022/12/15 07:40:10;;;;;;;45.37;24.07;;;-2.60;99.90;;;;;;5090069;28;20200;-67
2022/12/15 07:42:37;;;;;;;47.80;23.13;;;-2.60;99.90;;;;;;5087692;28;20300;-67
2022/12/15 07:45:06;;;;;;;44.87;23.50;;;-2.60;99.90;;;;;;5088559;28;20255;-68
2022/12/15 07:47:32;;;;;;;42.50;24.33;;;-2.60;99.90;;;;;;5090019;28;20196;-68
2022/12/15 07:49:59;;;;;;;44.83;22.83;;;-2.60;99.90;;;;;;5089579;28;20694;-67
2022/12/15 07:52:26;;;;;;;46.63;22.77;;;-2.60;99.90;;;;;;5089532;28;20295;-67
2022/12/15 07:54:53;;;;;;;50.50;23.63;;;-2.60;99.90;;;;;;5089548;28;20203;-69
2022/12/15 07:57:20;;;;;;;48.47;23.53;;;-2.60;99.90;;;;;;5090002;28;20208;-68
2022/12/15 07:59:46;;;;;;;47.83;24.43;;;-2.60;99.90;;;;;;5089520;28;20342;-68
2022/12/15 08:02:13;;;;;;;41.00;22.83;;;-2.60;99.90;;;;;;5070830;28;20318;-68
2022/12/15 08:04:40;;;;;;;49.93;25.00;;;-2.60;99.90;;;;;;5083041;28;20660;-67
2022/12/15 08:07:09;;;;;;;47.03;24.90;;;-2.60;99.90;;;;;;5091907;28;20200;-67
2022/12/15 08:09:36;;;;;;;51.53;24.97;;;-2.70;99.90;;;;;;5085448;28;20211;-67
2022/12/15 08:12:03;;;;;;;48.17;24.30;;;-2.60;99.90;;;;;;5086596;28;20303;-68
2022/12/15 08:14:31;;;;;;;54.90;26.37;;;-2.60;99.90;;;;;;5090680;28;20231;-68
2022/12/15 08:16:57;;;;;;;46.73;23.93;;;-2.60;99.90;;;;;;5089568;28;20204;-68
2022/12/15 08:19:24;;;;;;;48.27;25.70;;;-2.60;99.90;;;;;;5086168;28;20207;-69
2022/12/15 08:21:51;;;;;;;50.87;24.63;;;-2.60;99.90;;;;;;5090413;28;20192;-69
2022/12/15 08:24:30;;;;;;;47.40;25.40;;;-2.60;99.90;;;;;;5071701;28;20204;-69
2022/12/15 08:26:57;;;;;;;47.40;23.67;;;-2.60;99.90;;;;;;5071152;28;20598;-68
2022/12/15 08:29:24;;;;;;;49.50;25.47;;;-2.60;99.90;;;;;;5094829;28;20205;-68
2022/12/15 08:32:11;;;;;;;45.93;25.30;;;-2.50;99.90;;;;;;5074695;28;20246;-67
2022/12/15 08:34:37;;;;;;;53.37;27.27;;;-2.50;99.90;;;;;;5090908;28;20724;-68
2022/12/15 08:37:04;;;;;;;48.87;27.13;;;-2.50;99.90;;;;;;5090280;28;20207;-68
2022/12/15 08:39:31;;;;;;;54.43;27.70;;;-2.50;99.90;;;;;;5089457;28;20206;-68
2022/12/15 08:41:58;;;;;;;48.80;27.57;;;-2.50;99.90;;;;;;5087092;28;20257;-69
2022/12/15 08:44:24;;;;;;;53.63;28.97;;;-2.50;99.90;;;;;;5085031;28;20199;-68
2022/12/15 08:46:51;;;;;;;52.27;27.47;;;-2.50;99.90;;;;;;5084730;28;20205;-68
2022/12/15 08:49:18;;;;;;;59.40;28.90;;;-2.50;99.90;;;;;;5088428;28;20832;-68
2022/12/15 08:51:49;;;;;;;60.33;29.57;;;-2.50;99.90;;;;;;5087446;28;20297;-69
2022/12/15 08:54:17;;;;;;;55.80;27.97;;;-2.50;99.90;;;;;;5088357;28;20200;-68
2022/12/15 08:56:44;;;;;;;54.93;27.47;;;-2.50;99.90;;;;;;5087518;28;20250;-69
2022/12/15 08:59:11;;;;;;;57.60;30.90;;;-2.40;99.90;;;;;;5088430;28;20605;-68
2022/12/15 09:01:39;;;;;;;53.63;27.43;;;-2.40;99.90;;;;;;5088867;28;20695;-69
2022/12/15 09:04:06;;;;;;;61.33;29.70;;;-2.40;99.90;;;;;;5088650;28;20205;-67
2022/12/15 09:06:35;;;;;;;58.93;30.00;;;-2.40;99.90;;;;;;5068904;28;20243;-67
2022/12/15 09:09:07;;;;;;;61.20;31.80;;;-2.40;99.90;;;;;;5087446;28;20327;-68
2022/12/15 09:11:34;;;;;;;61.80;31.73;;;-2.40;99.90;;;;;;5086420;28;20315;-68
2022/12/15 09:14:02;;;;;;;61.67;32.23;;;-2.30;99.90;;;;;;5087890;28;20304;-68
2022/12/15 09:16:29;;;;;;;62.33;30.40;;;-2.30;99.90;;;;;;5092027;28;20231;-68
2022/12/15 09:18:57;;;;;;;58.97;30.93;;;-2.20;99.90;;;;;;5086163;28;20210;-67
2022/12/15 09:21:26;;;;;;;61.20;32.50;;;-2.20;99.90;;;;;;5086659;28;20291;-68
2022/12/15 09:24:00;;;;;;;59.03;32.07;;;-2.10;99.90;;;;;;5086343;28;20275;-68
2022/12/15 09:26:33;;;;;;;57.77;31.13;;;-2.00;99.90;;;;;;5067723;28;20232;-67
2022/12/15 09:29:00;;;;;;;64.67;31.73;;;-2.00;99.90;;;;;;5085023;28;20196;-69
2022/12/15 09:31:31;;;;;;;62.53;34.33;;;-1.90;99.90;;;;;;5085960;28;20699;-68
2022/12/15 09:33:59;;;;;;;62.23;30.73;;;-1.80;99.90;;;;;;5083191;28;20203;-67
2022/12/15 09:36:27;;;;;;;68.37;34.70;;;-1.80;99.90;;;;;;5086755;28;20282;-69
2022/12/15 09:38:58;;;;;;;56.07;29.40;;;-1.70;99.90;;;;;;5070431;28;20249;-69
2022/12/15 09:41:35;;;;;;;59.07;32.17;;;-1.70;99.90;;;;;;5086665;28;20204;-67
2022/12/15 09:44:14;;;;;;;58.67;31.27;;;-1.60;99.90;;;;;;5085818;28;20296;-69
2022/12/15 09:46:54;;;;;;;68.10;34.20;;;-1.60;99.90;;;;;;5090516;28;20214;-68
2022/12/15 09:49:23;;;;;;;60.97;33.77;;;-1.50;99.90;;;;;;5085771;28;20279;-67
2022/12/15 09:52:02;;;;;;;61.57;33.67;;;-1.50;99.90;;;;;;5088150;28;20593;-69
2022/12/15 09:54:36;;;;;;;61.33;35.03;;;-1.40;99.90;;;;;;5089257;28;20678;-69
2022/12/15 09:57:34;;;;;;;60.67;33.33;;;-1.30;99.90;;;;;;5091086;28;20213;-68
2022/12/15 10:00:20;;;;;;;58.27;32.63;;;-1.30;99.90;;;;;;5089383;28;20244;-69
2022/12/15 10:03:08;;;;;;;66.67;34.23;;;-1.20;99.90;;;;;;5091131;28;20208;-71
2022/12/15 10:05:47;;;;;;;64.70;33.23;;;-1.10;99.90;;;;;;5089186;28;20288;-68
2022/12/15 10:08:47;;;;;;;59.13;32.83;;;-1.00;99.90;;;;;;5089163;28;20668;-69
2022/12/15 10:11:22;;;;;;;56.80;33.03;;;-0.90;99.90;;;;;;5071635;28;20271;-68
2022/12/15 10:13:58;;;;;;;66.27;31.93;;;-1.00;99.90;;;;;;5091992;28;20202;-68
2022/12/15 10:16:46;;;;;;;70.43;32.87;;;-0.90;99.90;;;;;;5091361;28;20226;-68
2022/12/15 10:19:27;;;;;;;59.17;32.87;;;-0.90;99.90;;;;;;5090814;28;20544;-68
2022/12/15 10:21:56;;;;;;;58.13;30.77;;;-0.80;99.90;;;;;;5089603;28;20230;-69
2022/12/15 10:24:24;;;;;;;60.00;33.47;;;-0.70;99.90;;;;;;5092333;28;20198;-68
2022/12/15 10:27:32;;;;;;;56.03;31.53;;;-0.70;99.90;;;;;;5088615;28;20222;-68
2022/12/15 10:30:08;;;;;;;53.47;31.00;;;-0.60;99.90;;;;;;5089512;28;20309;-70
2022/12/15 10:33:13;;;;;;;56.37;31.47;;;-0.60;99.90;;;;;;5088065;28;20549;-68
2022/12/15 10:35:42;;;;;;;47.67;28.60;;;-0.60;99.90;;;;;;5087983;28;20278;-68
2022/12/15 10:38:22;;;;;;;51.70;29.90;;;-0.50;99.90;;;;;;5088943;28;20207;-69
2022/12/15 10:41:01;;;;;;;49.73;27.90;;;-0.50;99.90;;;;;;5091750;28;20206;-69
2022/12/15 10:43:39;;;;;;;49.27;28.07;;;-0.40;99.90;;;;;;5090538;28;20210;-69
2022/12/15 10:46:14;;;;;;;47.30;27.40;;;-0.30;99.90;;;;;;5090816;28;20272;-69
2022/12/15 10:48:49;;;;;;;45.83;27.40;;;-0.30;99.90;;;;;;5089706;28;20200;-69
2022/12/15 10:51:31;;;;;;;38.47;24.17;;;-0.20;99.90;;;;;;5090327;28;20249;-69
2022/12/15 10:54:02;;;;;;;44.23;23.57;;;-0.10;99.90;;;;;;5090988;28;20561;-69
2022/12/15 10:56:29;;;;;;;41.57;25.03;;;0.00;99.90;;;;;;5086276;28;20224;-69
2022/12/15 10:59:21;;;;;;;36.80;22.13;;;0.20;99.90;;;;;;5089145;28;20619;-68
2022/12/15 11:01:49;;;;;;;36.30;22.30;;;0.30;99.90;;;;;;5075308;28;20620;-68
2022/12/15 11:04:31;;;;;;;39.93;21.83;;;0.30;99.90;;;;;;5091124;28;20661;-70
2022/12/15 11:07:00;;;;;;;33.80;20.20;;;0.40;99.90;;;;;;5090236;28;20566;-69
2022/12/15 11:09:34;;;;;;;40.33;20.40;;;0.50;99.90;;;;;;5088253;28;20334;-67
2022/12/15 11:15:00;;;;;;;30.13;18.47;;;0.60;99.90;;;;;;5090334;28;20194;-68
2022/12/15 11:17:38;;;;;;;33.20;18.27;;;0.70;99.90;;;;;;5089705;28;20206;-69
2022/12/15 11:20:13;;;;;;;31.40;16.70;;;0.80;99.90;;;;;;5091482;28;20287;-69
2022/12/15 11:22:49;;;;;;;28.37;17.73;;;0.90;99.90;;;;;;5088724;28;20238;-69
2022/12/15 11:25:45;;;;;;;27.57;17.70;;;1.00;99.90;;;;;;5089350;28;20655;-69
2022/12/15 11:28:22;;;;;;;28.63;17.50;;;1.10;99.90;;;;;;5088368;28;20745;-69
2022/12/15 11:31:21;;;;;;;33.97;18.37;;;1.20;99.90;;;;;;5073688;28;20354;-68
2022/12/15 11:33:52;;;;;;;26.20;17.67;;;1.30;99.90;;;;;;5079785;28;20682;-70
2022/12/15 11:36:29;;;;;;;31.33;17.87;;;1.30;99.90;;;;;;5082891;28;20713;-69
2022/12/15 11:39:07;;;;;;;24.30;16.77;;;1.40;99.90;;;;;;5089669;28;20299;-69
2022/12/15 11:41:53;;;;;;;25.43;16.13;;;1.40;99.90;;;;;;5088932;28;20223;-69
2022/12/15 11:44:28;;;;;;;29.87;17.07;;;1.40;99.90;;;;;;5088322;28;20294;-68
2022/12/15 11:47:12;;;;;;;26.77;16.77;;;1.40;99.90;;;;;;5090344;28;20306;-69
2022/12/15 11:49:49;;;;;;;28.63;16.43;;;1.50;99.90;;;;;;5072091;28;20699;-68
2022/12/15 11:52:33;;;;;;;28.67;16.30;;;1.50;99.90;;;;;;5071506;28;20299;-70
2022/12/15 11:55:23;;;;;;;27.90;16.53;;;1.50;99.90;;;;;;5085813;28;20195;-69
2022/12/15 11:58:11;;;;;;;27.30;15.43;;;1.50;99.90;;;;;;5080629;28;20216;-69
2022/12/15 12:00:43;;;;;;;29.97;16.27;;;1.50;99.90;;;;;;5086006;28;20306;-70
2022/12/15 12:03:38;;;;;;;27.43;16.37;;;1.50;99.90;;;;;;5086589;28;20196;-69
2022/12/15 12:06:18;;;;;;;24.80;16.03;;;1.60;99.90;;;;;;5088206;28;20192;-69
2022/12/15 12:09:00;;;;;;;26.40;16.83;;;1.60;99.90;;;;;;5069199;28;20624;-69
2022/12/15 12:11:39;;;;;;;29.17;16.60;;;1.60;99.90;;;;;;5087655;28;20220;-70
2022/12/15 12:14:23;;;;;;;27.20;15.80;;;1.60;99.90;;;;;;5085595;28;20207;-70
2022/12/15 12:17:14;;;;;;;30.10;15.90;;;1.60;99.90;;;;;;5083605;28;20287;-70
2022/12/15 12:19:58;;;;;;;22.03;15.03;;;1.70;99.90;;;;;;5084612;28;20291;-70
2022/12/15 12:22:33;;;;;;;22.83;16.30;;;1.70;99.90;;;;;;5088411;28;20192;-69
2022/12/15 12:25:19;;;;;;;26.70;16.47;;;1.80;99.90;;;;;;5083396;28;20244;-70
2022/12/15 12:28:16;;;;;;;25.70;16.07;;;1.90;99.90;;;;;;5088004;28;20267;-69
2022/12/15 12:30:46;;;;;;;29.87;15.53;;;2.10;99.90;;;;;;5076039;28;20280;-68
2022/12/15 12:33:38;;;;;;;32.17;16.17;;;2.10;99.90;;;;;;5087101;28;20227;-68
2022/12/15 12:36:12;;;;;;;21.93;14.57;;;2.20;99.90;;;;;;5088056;28;20291;-68
2022/12/15 12:38:54;;;;;;;25.87;15.23;;;2.30;99.90;;;;;;5085788;27;20629;-68
2022/12/15 12:41:43;;;;;;;25.33;15.43;;;2.40;99.90;;;;;;5070646;28;20255;-68
2022/12/15 12:44:29;;;;;;;26.37;15.67;;;2.40;99.90;;;;;;5071262;28;20195;-67
2022/12/15 12:46:58;;;;;;;27.57;16.00;;;2.50;99.90;;;;;;5073281;28;20283;-67
2022/12/15 12:49:25;;;;;;;21.17;14.60;;;2.50;99.90;;;;;;5066214;28;20305;-68
2022/12/15 12:52:28;;;;;;;24.23;14.90;;;2.50;99.90;;;;;;5068290;28;20197;-68
2022/12/15 12:55:20;;;;;;;24.70;15.50;;;2.60;99.90;;;;;;5064851;28;20759;-69
2022/12/15 12:57:46;;;;;;;24.80;15.53;;;2.50;99.90;;;;;;5067478;28;20238;-68
2022/12/15 13:00:20;;;;;;;27.57;15.97;;;2.50;99.90;;;;;;5073815;28;20565;-68
2022/12/15 13:03:09;;;;;;;26.80;18.03;;;2.50;99.90;;;;;;5071131;28;20203;-68
2022/12/15 13:05:38;;;;;;;27.50;17.70;;;2.50;99.90;;;;;;5070400;28;20764;-68
2022/12/15 13:08:05;;;;;;;25.90;16.30;;;2.50;99.90;;;;;;5070523;28;20258;-69
2022/12/15 13:10:43;;;;;;;31.40;17.30;;;2.50;99.90;;;;;;5070543;28;20198;-69
2022/12/15 13:13:28;;;;;;;30.00;17.87;;;2.50;99.90;;;;;;5070108;28;20214;-67
2022/12/15 13:16:18;;;;;;;27.53;17.40;;;2.50;99.90;;;;;;5074804;28;20220;-69
2022/12/15 13:18:55;;;;;;;34.07;17.17;;;2.50;99.90;;;;;;5062049;28;20223;-68
2022/12/15 13:21:43;;;;;;;27.10;17.07;;;2.40;99.90;;;;;;5073853;28;20304;-69
2022/12/15 13:24:18;;;;;;;30.13;17.77;;;2.50;99.90;;;;;;5062727;28;20778;-67
2022/12/15 13:26:45;;;;;;;29.60;18.37;;;2.50;99.90;;;;;;5052552;28;20590;-67
2022/12/15 13:29:19;;;;;;;28.20;17.90;;;2.50;99.90;;;;;;5073447;28;20208;-68
2022/12/15 13:31:48;;;;;;;34.57;18.27;;;2.50;99.90;;;;;;5060515;28;20277;-68
2022/12/15 13:34:19;;;;;;;27.63;19.07;;;2.60;99.90;;;;;;5087919;28;20604;-68
2022/12/15 13:36:53;;;;;;;28.73;19.10;;;2.60;99.90;;;;;;5073574;28;20231;-69
2022/12/15 13:39:21;;;;;;;30.60;19.67;;;2.60;99.90;;;;;;5073762;28;20275;-68
2022/12/15 13:41:47;;;;;;;28.23;18.10;;;2.50;99.90;;;;;;5065100;28;20649;-69
2022/12/15 13:44:42;;;;;;;36.83;19.63;;;2.50;99.90;;;;;;5065449;28;20203;-67
2022/12/15 13:47:21;;;;;;;32.50;19.83;;;2.40;99.90;;;;;;5070860;28;20195;-67
2022/12/15 13:49:54;;;;;;;30.50;19.67;;;2.40;99.90;;;;;;5057173;28;20249;-69
2022/12/15 13:52:54;;;;;;;33.13;20.70;;;2.40;99.90;;;;;;5054903;28;20289;-68
2022/12/15 13:56:05;;;;;;;34.40;20.73;;;2.30;99.90;;;;;;5054175;28;20672;-68
2022/12/15 13:58:46;;;;;;;37.17;21.37;;;2.30;99.90;;;;;;5057068;28;20581;-67
2022/12/15 14:01:25;;;;;;;36.10;21.73;;;2.20;99.90;;;;;;5058014;28;20647;-67
2022/12/15 14:03:58;;;;;;;34.90;22.77;;;2.20;99.90;;;;;;5061716;28;20266;-67
2022/12/15 14:06:32;;;;;;;38.87;23.53;;;2.10;99.90;;;;;;5053324;28;20210;-66
2022/12/15 14:08:59;;;;;;;36.87;23.07;;;2.20;99.90;;;;;;5065652;28;20194;-66
2022/12/15 14:11:30;;;;;;;37.60;22.97;;;2.20;99.90;;;;;;5058496;28;20203;-67
2022/12/15 14:14:21;;;;;;;36.53;23.33;;;2.20;99.90;;;;;;5054497;28;20204;-68
2022/12/15 14:17:05;;;;;;;39.83;23.63;;;2.10;99.90;;;;;;5037945;28;20700;-67
2022/12/15 14:19:37;;;;;;;39.20;23.53;;;2.10;99.90;;;;;;5053549;28;20218;-68
2022/12/15 14:22:24;;;;;;;42.70;24.40;;;2.10;99.90;;;;;;5059717;28;20273;-68
2022/12/15 14:25:02;;;;;;;39.30;23.83;;;2.10;99.90;;;;;;5056478;28;20636;-68
2022/12/15 14:27:31;;;;;;;39.03;23.27;;;2.00;99.90;;;;;;5054297;28;20560;-67
2022/12/15 14:30:25;;;;;;;36.87;23.30;;;2.10;99.90;;;;;;5061368;28;20217;-67
2022/12/15 14:33:12;;;;;;;40.20;25.17;;;2.10;99.90;;;;;;5057433;28;20241;-67
2022/12/15 14:35:43;;;;;;;39.23;23.57;;;2.00;99.90;;;;;;5053252;28;20277;-67
2022/12/15 14:38:20;;;;;;;36.80;22.93;;;2.00;99.90;;;;;;5054956;28;20244;-67
2022/12/15 14:40:50;;;;;;;41.37;25.30;;;1.90;99.90;;;;;;5056030;28;20552;-66
2022/12/15 14:43:25;;;;;;;38.97;23.40;;;1.90;99.90;;;;;;5055500;28;20301;-67
2022/12/15 14:46:11;;;;;;;41.67;24.73;;;1.90;99.90;;;;;;5055617;28;20201;-68
2022/12/15 14:48:42;;;;;;;41.00;24.10;;;1.80;99.90;;;;;;5054416;28;20201;-68
2022/12/15 14:51:12;;;;;;;39.00;25.13;;;1.80;99.90;;;;;;5052536;28;20316;-68
2022/12/15 14:53:41;;;;;;;40.63;25.67;;;1.70;99.90;;;;;;5053299;28;20721;-68
2022/12/15 14:56:13;;;;;;;45.07;25.30;;;1.60;99.90;;;;;;5036549;28;20233;-68
2022/12/15 14:58:41;;;;;;;43.80;26.50;;;1.60;99.90;;;;;;5052140;28;20228;-68
2022/12/15 15:01:41;;;;;;;45.73;26.47;;;1.60;99.90;;;;;;5057408;28;20233;-68
2022/12/15 15:04:31;;;;;;;40.20;24.67;;;1.50;99.90;;;;;;5053320;28;20201;-68
2022/12/15 15:07:01;;;;;;;42.33;25.10;;;1.50;99.90;;;;;;5058028;28;20212;-67
2022/12/15 15:09:30;;;;;;;43.77;25.57;;;1.40;99.90;;;;;;5056692;28;20756;-67
2022/12/15 15:12:13;;;;;;;43.07;26.03;;;1.30;99.90;;;;;;5070857;28;20308;-69
2022/12/15 15:14:45;;;;;;;44.27;26.43;;;1.50;99.90;;;;;;5055337;28;20636;-68
2022/12/15 15:17:12;;;;;;;44.93;26.77;;;1.20;99.90;;;;;;5053696;28;20292;-67
2022/12/15 15:19:59;;;;;;;50.90;29.03;;;1.10;99.90;;;;;;5051570;28;20636;-68
2022/12/15 15:22:25;;;;;;;46.57;29.07;;;1.10;99.90;;;;;;5052103;28;20524;-68
2022/12/15 15:24:52;;;;;;;52.27;31.53;;;1.00;99.90;;;;;;5057840;28;20212;-68
2022/12/15 15:27:29;;;;;;;48.73;31.00;;;1.00;99.90;;;;;;5053428;28;20713;-68
2022/12/15 15:30:15;;;;;;;52.57;30.03;;;0.90;99.90;;;;;;5050012;28;20292;-68